Tequesta, FL (33469)

11:31 AM EDT on August 27, 2016 (GMT -0400)
Rolling Hills | | Change Station

Elev 23 ft 26.99 °N, 80.09 °W | Updated 8 seconds ago

Scattered Clouds
Scattered Clouds
86.7 °F
Feels Like 97 °F
N
0.9
Wind Variable Wind from North
Gusts 2.5 mph

Today
High -- | Low -- °F
--% Chance of Precip.
Yesterday
High -- | Low -- °F
Precip. -- in
Pressure 29.97 in
Visibility 7.0 miles
Clouds Scattered Clouds 2500 ft
Heat Index 97 °F
Dew Point 76 °F
Humidity 71%
Rainfall 0.00 in
Snow Depth Not available.
6:57 AM 7:45 PM
Waning Crescent, 23% visible
METAR KSUA 271447Z 07010G18KT 7SM VCTS SCT025 33/27 A2997
Pressure 29.97 in
Visibility 7.0 miles
Clouds Scattered Clouds 2500 ft
Heat Index 97 °F
Dew Point 76 °F
Humidity 71%
Rainfall 0.00 in
Snow Depth Not available.
6:57 AM 7:45 PM
Waning Crescent, 23% visible
METAR KSUA 271447Z 07010G18KT 7SM VCTS SCT025 33/27 A2997

10-Day Weather Forecast

Almanac

Astronomy

Aug. 27, 2016 Rise Set
Actual Time
Civil Twilight
Nautical Twilight
Astronomical Twilight
Moon
Length of Visible Light
Length of Day
Tomorrow will be .
, % of the Moon is Illuminated

Today's Extremes

State Highs State Lows

Community

WunderPhotos

Upload Photos

1,935,356 photos uploaded!

WunderBlog® & News

Nearby

Air Quality

  Air Quality AQ Index Pollutant
Not available.

Snow Depth

Station Depth Elevation

Earthquake Activity

City Distance Mag. Time & Date
Minimum magnitude displayed is 2.5.

Coastal Water Temperatures

Place Temperature

Stations

Nearby Weather Stations

Station Location Temp. Windchill Dew Point Humidity Wind Precip. Elev Updated Type
                   

Watches & Warnings

There are currently no watches in effect.